Time;durP1;ratioP1;P1;durP2;ratioP2;P2;SDS_P1;SDS_P2;PMS_P1;PMS_P2;Temp;Humidity;BMP_temperature;BMP_pressure;BME280_temperature;BME280_humidity;BME280_pressure;Samples;Min_cycle;Max_cycle;Signal;HPM_P1;HPM_P2
2022/07/16 00:01:49;;;;;;;4.18;1.70;;;16.00;99.90;;;;;;5035578;28;20072;-67
2022/07/16 00:04:18;;;;;;;5.85;1.92;;;15.90;99.90;;;;;;5035182;28;20409;-68
2022/07/16 00:06:44;;;;;;;5.70;2.08;;;15.90;99.90;;;;;;5019064;28;20039;-67
2022/07/16 00:09:11;;;;;;;4.05;1.83;;;15.90;99.90;;;;;;5019660;28;20041;-67
2022/07/16 00:11:36;;;;;;;7.82;2.00;;;15.90;99.90;;;;;;5035578;28;20041;-68
2022/07/16 00:14:02;;;;;;;4.97;1.70;;;15.90;99.90;;;;;;5035935;28;20482;-67
2022/07/16 00:16:28;;;;;;;4.05;1.80;;;15.80;99.90;;;;;;5035128;28;20045;-67
2022/07/16 00:21:37;;;;;;;4.85;1.70;;;15.90;99.90;;;;;;5032460;28;20041;-68
2022/07/16 00:24:05;;;;;;;5.25;2.60;;;15.90;99.90;;;;;;5035496;28;20040;-68
2022/07/16 00:26:30;;;;;;;6.40;2.20;;;15.80;99.90;;;;;;5035009;28;20051;-68
2022/07/16 00:28:56;;;;;;;3.97;1.88;;;15.90;99.90;;;;;;5016966;28;20396;-68
2022/07/16 00:31:22;;;;;;;5.65;1.77;;;15.90;99.90;;;;;;5035463;28;20574;-68
2022/07/16 00:33:47;;;;;;;6.15;1.98;;;15.90;99.90;;;;;;5018777;28;20033;-68
2022/07/16 00:36:13;;;;;;;4.10;1.83;;;15.90;99.90;;;;;;5019184;28;20496;-68
2022/07/16 00:38:39;;;;;;;4.95;1.75;;;15.90;99.90;;;;;;5034791;28;20048;-68
2022/07/16 00:41:04;;;;;;;6.13;2.00;;;15.90;99.90;;;;;;5018442;28;20041;-68
2022/07/16 00:43:30;;;;;;;4.88;2.10;;;15.90;99.90;;;;;;5034545;28;20044;-68
2022/07/16 00:45:55;;;;;;;4.38;1.80;;;16.00;99.90;;;;;;5035686;28;20037;-67
2022/07/16 00:48:21;;;;;;;6.20;2.13;;;16.00;99.90;;;;;;5032459;28;20037;-67
2022/07/16 00:50:47;;;;;;;5.03;1.70;;;16.00;99.90;;;;;;5035594;28;20143;-67
2022/07/16 00:53:12;;;;;;;4.55;1.77;;;16.00;99.90;;;;;;5035397;28;20036;-67
2022/07/16 00:55:38;;;;;;;4.70;1.98;;;16.10;99.90;;;;;;5035213;28;20040;-68
2022/07/16 00:58:04;;;;;;;5.88;1.92;;;16.10;99.90;;;;;;5034330;28;20045;-67
2022/07/16 01:00:30;;;;;;;3.72;1.75;;;16.10;99.90;;;;;;5034752;28;20040;-67
2022/07/16 01:02:57;;;;;;;4.68;2.00;;;16.20;99.90;;;;;;5035315;28;20037;-69
2022/07/16 01:05:23;;;;;;;4.72;1.90;;;16.20;99.90;;;;;;5018653;28;20133;-68
2022/07/16 01:07:49;;;;;;;5.78;1.98;;;16.10;99.90;;;;;;5034536;28;20123;-68
2022/07/16 01:10:18;;;;;;;5.88;2.05;;;16.20;99.90;;;;;;5015856;28;20033;-67
2022/07/16 01:12:45;;;;;;;5.43;2.20;;;16.20;99.90;;;;;;5032942;28;20493;-68
2022/07/16 01:15:12;;;;;;;4.65;2.33;;;16.20;99.90;;;;;;5002323;28;20041;-68
2022/07/16 01:17:37;;;;;;;6.03;2.60;;;16.20;99.90;;;;;;5017719;28;20539;-68
2022/07/16 01:20:05;;;;;;;6.05;2.63;;;16.20;99.90;;;;;;5033220;28;20041;-67
2022/07/16 01:22:31;;;;;;;9.07;2.78;;;16.20;99.90;;;;;;5012879;28;20044;-67
2022/07/16 01:24:57;;;;;;;11.65;2.80;;;16.20;99.90;;;;;;5012608;28;20037;-69
2022/07/16 01:27:22;;;;;;;8.55;2.60;;;16.20;99.90;;;;;;5010165;28;20055;-68
2022/07/16 01:29:48;;;;;;;4.97;2.40;;;16.30;99.90;;;;;;5024914;28;20135;-68
2022/07/16 01:32:13;;;;;;;8.45;3.30;;;16.30;99.90;;;;;;5016547;28;20051;-68
2022/07/16 01:34:39;;;;;;;4.13;2.40;;;16.30;99.90;;;;;;5017830;28;20484;-68
2022/07/16 01:37:08;;;;;;;7.72;2.58;;;16.30;99.90;;;;;;5034011;28;20071;-68
2022/07/16 01:39:37;;;;;;;5.95;2.50;;;16.20;99.90;;;;;;5017200;28;20069;-68
2022/07/16 01:42:06;;;;;;;4.80;2.30;;;16.30;99.90;;;;;;5032594;28;20052;-68
2022/07/16 01:44:34;;;;;;;5.28;2.03;;;16.30;99.90;;;;;;5034962;28;20053;-68
2022/07/16 01:47:02;;;;;;;4.80;1.80;;;16.30;99.90;;;;;;5019224;28;20044;-68
2022/07/16 01:49:36;;;;;;;5.55;2.03;;;16.30;99.90;;;;;;5017713;28;20118;-68
2022/07/16 01:52:07;;;;;;;5.38;1.88;;;16.30;99.90;;;;;;5033258;28;20123;-68
2022/07/16 01:54:33;;;;;;;5.50;2.08;;;16.30;99.90;;;;;;5032804;28;20489;-68
2022/07/16 01:56:59;;;;;;;3.80;1.77;;;16.20;99.90;;;;;;5016654;28;20124;-68
2022/07/16 01:59:24;;;;;;;4.68;1.80;;;16.10;99.90;;;;;;5017780;28;20419;-68
2022/07/16 02:01:50;;;;;;;3.47;1.80;;;16.10;99.90;;;;;;5017397;28;20041;-68
2022/07/16 02:04:15;;;;;;;5.45;1.85;;;16.10;99.90;;;;;;5018473;28;20040;-68
2022/07/16 02:06:41;;;;;;;4.57;1.90;;;16.10;99.90;;;;;;5013521;28;20033;-68
2022/07/16 02:09:07;;;;;;;3.15;1.77;;;16.00;99.90;;;;;;5032097;28;20555;-68
2022/07/16 02:11:32;;;;;;;4.78;1.90;;;16.00;99.90;;;;;;5034661;28;20049;-68
2022/07/16 02:13:58;;;;;;;4.30;1.70;;;16.00;99.90;;;;;;5029287;28;20036;-68
2022/07/16 02:16:23;;;;;;;4.57;1.70;;;16.00;99.90;;;;;;5033495;28;20075;-68
2022/07/16 02:18:49;;;;;;;3.00;1.60;;;16.00;99.90;;;;;;5036530;28;20458;-68
2022/07/16 02:21:14;;;;;;;4.70;1.80;;;16.00;99.90;;;;;;5038295;28;20092;-68
2022/07/16 02:23:40;;;;;;;3.65;1.70;;;16.00;99.90;;;;;;5037102;28;20033;-67
2022/07/16 02:26:06;;;;;;;4.38;1.70;;;15.90;99.90;;;;;;5036869;28;20036;-67
2022/07/16 02:28:31;;;;;;;4.70;1.70;;;16.00;99.90;;;;;;5036893;28;20489;-67
2022/07/16 02:30:57;;;;;;;5.65;1.65;;;16.00;99.90;;;;;;5020528;28;20049;-68
2022/07/16 02:33:22;;;;;;;3.47;1.60;;;16.00;99.90;;;;;;5038055;28;20124;-68
2022/07/16 02:35:48;;;;;;;3.45;1.70;;;16.00;99.90;;;;;;5036899;28;20041;-68
2022/07/16 02:38:14;;;;;;;5.07;1.60;;;16.10;99.90;;;;;;5019363;28;20068;-68
2022/07/16 02:40:41;;;;;;;4.22;1.67;;;16.10;99.90;;;;;;5036941;28;20493;-67
2022/07/16 02:43:09;;;;;;;3.90;1.60;;;16.10;99.90;;;;;;5035604;28;20053;-67
2022/07/16 02:45:38;;;;;;;4.18;1.40;;;16.00;99.90;;;;;;5037092;28;20489;-68
2022/07/16 02:48:04;;;;;;;3.95;1.50;;;16.00;99.90;;;;;;5034446;28;20041;-68
2022/07/16 02:50:30;;;;;;;3.55;1.63;;;16.00;99.90;;;;;;5019915;28;20469;-68
2022/07/16 02:52:57;;;;;;;3.05;1.40;;;16.00;99.90;;;;;;5035950;28;20041;-67
2022/07/16 02:55:23;;;;;;;4.40;1.60;;;16.00;99.90;;;;;;5035380;28;20548;-68
2022/07/16 02:57:49;;;;;;;5.47;1.80;;;16.00;99.90;;;;;;5035904;28;20068;-68
2022/07/16 03:00:16;;;;;;;4.75;1.60;;;16.00;99.90;;;;;;5037049;28;20523;-67
2022/07/16 03:02:42;;;;;;;6.70;1.70;;;16.00;99.90;;;;;;5016697;28;20041;-68
2022/07/16 03:05:09;;;;;;;5.35;1.70;;;16.00;99.90;;;;;;5017485;28;20060;-68
2022/07/16 03:07:35;;;;;;;5.88;1.85;;;16.00;99.90;;;;;;5027776;28;20573;-67
2022/07/16 03:10:01;;;;;;;4.82;1.55;;;15.90;99.90;;;;;;5030894;28;20120;-68
2022/07/16 03:12:26;;;;;;;5.90;2.00;;;15.90;99.90;;;;;;5036260;28;20086;-67
2022/07/16 03:14:52;;;;;;;4.80;1.63;;;15.90;99.90;;;;;;5033056;28;20112;-69
2022/07/16 03:17:18;;;;;;;5.35;1.88;;;15.90;99.90;;;;;;5036880;28;20041;-68
2022/07/16 03:19:43;;;;;;;4.68;1.80;;;15.90;99.90;;;;;;5036338;28;20098;-67
2022/07/16 03:22:09;;;;;;;4.82;1.73;;;15.90;99.90;;;;;;5036600;28;20037;-67
2022/07/16 03:24:35;;;;;;;4.28;1.73;;;15.80;99.90;;;;;;5018592;28;20037;-67
2022/07/16 03:27:01;;;;;;;3.95;1.70;;;15.70;99.90;;;;;;5035713;28;20036;-67
2022/07/16 03:29:27;;;;;;;5.60;1.77;;;15.70;99.90;;;;;;5033295;28;20037;-68
2022/07/16 03:31:53;;;;;;;5.72;1.90;;;15.70;99.90;;;;;;5019570;28;20127;-67
2022/07/16 03:34:18;;;;;;;5.30;2.13;;;15.60;99.90;;;;;;5018731;28;20140;-67
2022/07/16 03:36:44;;;;;;;5.95;1.90;;;15.60;99.90;;;;;;5018683;28;20127;-67
2022/07/16 03:39:09;;;;;;;4.75;1.70;;;15.60;99.90;;;;;;5018095;28;20032;-67
2022/07/16 03:41:36;;;;;;;3.55;1.63;;;15.60;99.90;;;;;;5034198;28;20045;-67
2022/07/16 03:44:04;;;;;;;5.38;1.77;;;15.50;99.90;;;;;;5033159;28;20041;-68
2022/07/16 03:46:30;;;;;;;5.63;2.00;;;15.50;99.90;;;;;;5033213;28;20155;-67
2022/07/16 03:48:57;;;;;;;5.22;1.63;;;15.50;99.90;;;;;;5017982;28;20123;-68
2022/07/16 03:51:22;;;;;;;6.40;1.60;;;15.50;99.90;;;;;;5034282;28;20473;-68
2022/07/16 03:53:48;;;;;;;4.25;1.60;;;15.50;99.90;;;;;;5016169;28;20087;-68
2022/07/16 03:56:14;;;;;;;5.43;1.80;;;15.40;99.90;;;;;;5018505;28;20116;-68
2022/07/16 03:58:41;;;;;;;3.78;1.60;;;15.40;99.90;;;;;;5034317;28;20033;-67
2022/07/16 04:01:07;;;;;;;5.95;1.95;;;15.40;99.90;;;;;;5018025;28;20060;-68
2022/07/16 04:03:34;;;;;;;5.75;1.85;;;15.30;99.90;;;;;;5033740;28;20037;-67
2022/07/16 04:05:59;;;;;;;6.35;1.52;;;15.30;99.90;;;;;;5030594;28;20040;-68
2022/07/16 04:08:25;;;;;;;4.35;1.65;;;15.20;99.90;;;;;;5022388;28;20045;-68
2022/07/16 04:10:51;;;;;;;4.63;1.48;;;15.30;99.90;;;;;;5046513;28;20044;-67
2022/07/16 04:13:16;;;;;;;4.22;1.42;;;15.20;99.90;;;;;;5018154;28;20037;-67
2022/07/16 04:15:42;;;;;;;5.93;1.67;;;15.20;99.90;;;;;;5031263;28;20382;-68
2022/07/16 04:18:08;;;;;;;7.97;1.90;;;15.20;99.90;;;;;;5033376;28;20056;-68
2022/07/16 04:20:34;;;;;;;5.68;1.70;;;15.20;99.90;;;;;;5012508;28;20044;-68
2022/07/16 04:22:59;;;;;;;5.45;1.65;;;15.30;99.90;;;;;;5032935;28;20425;-67
2022/07/16 04:25:25;;;;;;;3.58;1.60;;;15.30;99.90;;;;;;5017852;28;20413;-68
2022/07/16 04:27:51;;;;;;;4.85;1.52;;;15.30;99.90;;;;;;5031112;28;20136;-67
2022/07/16 04:30:17;;;;;;;4.93;1.60;;;15.30;99.90;;;;;;5032940;28;20036;-68
2022/07/16 04:32:43;;;;;;;6.72;1.80;;;15.30;99.90;;;;;;5034837;28;20132;-68
2022/07/16 04:35:11;;;;;;;3.97;1.50;;;15.30;99.90;;;;;;5017345;28;20060;-68
2022/07/16 04:37:37;;;;;;;4.18;1.70;;;15.20;99.90;;;;;;5034512;28;20390;-67
2022/07/16 04:40:04;;;;;;;5.95;1.70;;;15.30;99.90;;;;;;5034015;28;20045;-67
2022/07/16 04:42:30;;;;;;;7.47;1.88;;;15.20;99.90;;;;;;5034601;28;20048;-68
2022/07/16 04:44:56;;;;;;;6.00;1.60;;;15.20;99.90;;;;;;5034023;28;20052;-68
2022/07/16 04:47:22;;;;;;;6.70;2.00;;;15.20;99.90;;;;;;5016731;28;20041;-68
2022/07/16 04:49:47;;;;;;;6.22;1.90;;;15.30;99.90;;;;;;5034009;28;20083;-68
2022/07/16 04:52:13;;;;;;;9.23;2.30;;;15.20;99.90;;;;;;5034342;28;20478;-68
2022/07/16 04:54:39;;;;;;;7.00;1.95;;;15.20;99.90;;;;;;5015879;28;20115;-68
2022/07/16 04:57:04;;;;;;;6.57;1.80;;;15.30;99.90;;;;;;5017132;28;20036;-68
2022/07/16 04:59:30;;;;;;;7.07;2.05;;;15.30;99.90;;;;;;5034285;28;20048;-68
2022/07/16 05:02:56;;;;;;;4.80;1.60;;;15.30;99.90;;;;;;5034188;28;20037;-68
2022/07/16 05:04:41;;;;;;;6.15;1.70;;;15.40;99.90;;;;;;5026970;28;20052;-68
2022/07/16 05:07:07;;;;;;;5.57;1.73;;;15.40;99.90;;;;;;5034029;28;20412;-68
2022/07/16 05:09:32;;;;;;;6.75;1.80;;;15.40;99.90;;;;;;5033062;28;20512;-68
2022/07/16 05:11:58;;;;;;;7.97;1.73;;;15.40;99.90;;;;;;5034204;28;20028;-67
2022/07/16 05:14:23;;;;;;;6.38;1.52;;;15.50;99.90;;;;;;5033300;28;20041;-68
2022/07/16 05:16:49;;;;;;;7.35;1.52;;;15.50;99.90;;;;;;5033239;28;20040;-68
2022/07/16 05:19:14;;;;;;;7.35;1.73;;;15.50;99.90;;;;;;5035290;28;20059;-68
2022/07/16 05:21:40;;;;;;;5.72;1.70;;;15.40;99.90;;;;;;5031861;28;20037;-68
2022/07/16 05:24:06;;;;;;;6.88;1.65;;;15.40;99.90;;;;;;5031865;28;20037;-68
2022/07/16 05:26:31;;;;;;;7.63;1.75;;;15.40;99.90;;;;;;5033085;28;20048;-68
2022/07/16 05:28:57;;;;;;;6.63;1.60;;;15.50;99.90;;;;;;5034450;28;20059;-68
2022/07/16 05:31:22;;;;;;;7.43;1.60;;;15.50;99.90;;;;;;5016768;28;20132;-67
2022/07/16 05:33:48;;;;;;;9.75;1.88;;;15.60;99.90;;;;;;5033010;28;20512;-67
2022/07/16 05:36:14;;;;;;;5.88;1.45;;;15.50;99.90;;;;;;5031114;28;20120;-67
2022/07/16 05:38:40;;;;;;;6.72;1.42;;;15.60;99.90;;;;;;5003058;28;20052;-67
2022/07/16 05:41:06;;;;;;;4.97;1.35;;;15.60;99.90;;;;;;5033866;28;20120;-67
2022/07/16 05:43:31;;;;;;;6.70;1.42;;;15.60;99.90;;;;;;5033981;28;20405;-68
2022/07/16 05:45:57;;;;;;;7.53;1.40;;;15.60;99.90;;;;;;5018169;28;20069;-67
2022/07/16 05:48:22;;;;;;;7.40;1.40;;;15.70;99.90;;;;;;5032919;28;20094;-67
2022/07/16 05:50:48;;;;;;;7.45;1.65;;;15.70;99.90;;;;;;5014805;28;20048;-67
2022/07/16 05:53:13;;;;;;;5.95;1.40;;;15.80;99.90;;;;;;5020133;28;20061;-67
2022/07/16 05:55:39;;;;;;;5.22;1.38;;;15.80;99.90;;;;;;5035978;28;20443;-67
2022/07/16 05:58:05;;;;;;;8.00;1.38;;;15.90;99.90;;;;;;5022051;28;20123;-67
2022/07/16 06:00:31;;;;;;;7.32;1.45;;;15.90;99.90;;;;;;5035668;28;20102;-67
2022/07/16 06:02:56;;;;;;;9.35;1.90;;;16.10;99.90;;;;;;5037513;28;20040;-67
2022/07/16 06:05:23;;;;;;;5.90;1.40;;;16.10;99.90;;;;;;5037112;28;20036;-67
2022/07/16 06:07:49;;;;;;;5.53;1.27;;;16.30;99.90;;;;;;5019632;28;20067;-67
2022/07/16 06:10:15;;;;;;;4.25;1.15;;;16.30;99.90;;;;;;5038320;28;20032;-68
2022/07/16 06:12:40;;;;;;;8.57;1.83;;;16.40;99.90;;;;;;5038303;28;20106;-68
2022/07/16 06:15:07;;;;;;;5.20;1.25;;;16.50;99.90;;;;;;5037000;28;20052;-68
2022/07/16 06:17:33;;;;;;;6.65;1.20;;;16.50;99.90;;;;;;5019777;28;20045;-67
2022/07/16 06:19:58;;;;;;;6.35;1.30;;;16.60;99.90;;;;;;5038069;28;20094;-68
2022/07/16 06:22:24;;;;;;;5.72;1.50;;;16.70;99.90;;;;;;5021584;28;20059;-68
2022/07/16 06:24:50;;;;;;;6.38;1.40;;;16.80;99.90;;;;;;5037205;28;20052;-68
2022/07/16 06:27:15;;;;;;;8.57;1.48;;;16.80;99.90;;;;;;5037131;28;20458;-68
2022/07/16 06:29:41;;;;;;;8.27;1.58;;;16.90;99.90;;;;;;5038205;28;20040;-68
2022/07/16 06:32:07;;;;;;;9.30;1.30;;;17.00;99.90;;;;;;5021375;28;20076;-67
2022/07/16 06:34:32;;;;;;;7.78;1.08;;;17.00;99.90;;;;;;5019348;28;20448;-68
2022/07/16 06:36:58;;;;;;;5.32;1.25;;;17.10;99.90;;;;;;5036756;28;20072;-68
2022/07/16 06:39:23;;;;;;;6.82;1.02;;;17.10;99.90;;;;;;5020202;28;20041;-68
2022/07/16 06:41:49;;;;;;;7.55;2.03;;;17.10;99.90;;;;;;5021254;28;20069;-68
2022/07/16 06:44:14;;;;;;;6.97;1.00;;;17.20;99.90;;;;;;5021354;28;20041;-67
2022/07/16 06:46:40;;;;;;;4.82;1.40;;;17.20;99.90;;;;;;5021123;28;20106;-67
2022/07/16 06:49:06;;;;;;;8.63;1.25;;;17.20;99.90;;;;;;5037842;28;20531;-68
2022/07/16 06:51:31;;;;;;;6.25;1.17;;;17.30;99.90;;;;;;5037563;28;20041;-68
2022/07/16 06:53:57;;;;;;;8.18;1.65;;;17.40;99.90;;;;;;5037596;28;20037;-68
2022/07/16 06:56:23;;;;;;;6.80;1.02;;;17.40;99.90;;;;;;5037313;28;20531;-68
2022/07/16 06:58:48;;;;;;;3.83;0.80;;;17.40;99.90;;;;;;5037568;28;20408;-68
2022/07/16 07:01:14;;;;;;;4.82;1.27;;;17.40;99.90;;;;;;5037328;28;20035;-68
2022/07/16 07:03:40;;;;;;;6.55;0.90;;;17.40;99.90;;;;;;5037106;28;20440;-68
2022/07/16 07:06:07;;;;;;;6.57;1.17;;;17.40;99.90;;;;;;5037369;28;20094;-68
2022/07/16 07:08:33;;;;;;;4.18;0.93;;;17.50;99.90;;;;;;5019632;28;20037;-68
2022/07/16 07:10:59;;;;;;;6.65;1.38;;;17.40;99.90;;;;;;5036584;28;20523;-68
2022/07/16 07:13:32;;;;;;;4.57;0.85;;;17.40;99.90;;;;;;5020946;28;20036;-68
2022/07/16 07:15:58;;;;;;;7.40;1.25;;;17.50;99.90;;;;;;5037561;28;20501;-68
2022/07/16 07:18:25;;;;;;;5.03;0.80;;;17.60;99.90;;;;;;5036189;28;20122;-68
2022/07/16 07:20:50;;;;;;;6.47;1.05;;;17.70;99.90;;;;;;5037082;28;20119;-67
2022/07/16 07:23:16;;;;;;;5.28;1.20;;;17.50;99.90;;;;;;5020580;28;20522;-67
2022/07/16 07:25:41;;;;;;;3.80;0.80;;;17.40;99.90;;;;;;5037023;28;20036;-68
2022/07/16 07:28:07;;;;;;;5.05;1.00;;;17.40;99.90;;;;;;5020400;28;20045;-68
2022/07/16 07:30:33;;;;;;;5.10;0.90;;;17.30;99.90;;;;;;5036616;28;20029;-68
2022/07/16 07:33:01;;;;;;;5.00;1.00;;;17.30;99.90;;;;;;5036698;28;20162;-68
2022/07/16 07:35:27;;;;;;;5.35;0.80;;;17.30;99.90;;;;;;5036972;28;20037;-68
2022/07/16 07:37:53;;;;;;;5.63;1.10;;;17.20;99.90;;;;;;5018590;28;20056;-68
2022/07/16 07:40:19;;;;;;;4.75;0.98;;;17.20;99.90;;;;;;5033809;28;20552;-72
2022/07/16 07:42:44;;;;;;;4.80;0.88;;;17.40;99.90;;;;;;5019141;28;20029;-67
2022/07/16 07:45:10;;;;;;;7.93;1.15;;;17.50;99.90;;;;;;5036801;28;20037;-68
2022/07/16 07:47:37;;;;;;;5.35;1.08;;;17.60;99.90;;;;;;5036562;28;20049;-67
2022/07/16 07:50:07;;;;;;;6.68;1.00;;;17.70;99.90;;;;;;5035755;28;20107;-68
2022/07/16 07:52:32;;;;;;;4.55;0.80;;;17.80;99.90;;;;;;5036257;28;20075;-68
2022/07/16 07:54:58;;;;;;;4.78;0.70;;;17.70;99.90;;;;;;5036333;28;20432;-68
2022/07/16 07:57:24;;;;;;;3.85;0.75;;;17.70;99.90;;;;;;5035593;28;20059;-68
2022/07/16 07:59:50;;;;;;;3.42;0.68;;;17.90;99.90;;;;;;5019805;28;20044;-68
2022/07/16 08:02:16;;;;;;;4.47;0.93;;;18.00;99.90;;;;;;5033807;28;20131;-67
2022/07/16 08:04:42;;;;;;;4.75;0.90;;;18.10;99.90;;;;;;5035925;28;20057;-68
2022/07/16 08:07:08;;;;;;;5.28;1.10;;;18.20;99.90;;;;;;5035479;28;20040;-68
2022/07/16 08:09:33;;;;;;;4.65;1.00;;;18.30;99.90;;;;;;5035334;28;20037;-68
2022/07/16 08:11:59;;;;;;;3.50;0.90;;;18.30;99.90;;;;;;5034323;28;20029;-67
2022/07/16 08:14:25;;;;;;;5.03;0.90;;;18.30;99.90;;;;;;5019367;28;20048;-68
2022/07/16 08:16:50;;;;;;;9.65;1.00;;;18.20;99.90;;;;;;5035308;28;20049;-67
2022/07/16 08:19:16;;;;;;;3.28;0.85;;;18.20;99.90;;;;;;5035833;28;20037;-68
2022/07/16 08:21:42;;;;;;;4.97;0.90;;;18.10;99.90;;;;;;5018601;28;20051;-68
2022/07/16 08:26:51;;;;;;;3.38;0.85;;;18.30;99.90;;;;;;5035107;28;20053;-68
2022/07/16 08:29:17;;;;;;;6.30;0.82;;;18.40;99.90;;;;;;5019259;28;20036;-68
2022/07/16 08:31:42;;;;;;;6.88;2.30;;;18.50;99.90;;;;;;5034800;28;20391;-68
2022/07/16 08:34:08;;;;;;;3.75;1.00;;;18.60;99.90;;;;;;5035629;28;20045;-69
2022/07/16 08:36:34;;;;;;;4.03;1.17;;;18.50;99.90;;;;;;5035640;28;20037;-68
2022/07/16 08:38:59;;;;;;;5.00;0.82;;;18.50;99.90;;;;;;5033329;28;20090;-68
2022/07/16 08:41:25;;;;;;;6.85;1.35;;;18.40;99.90;;;;;;5033632;28;20116;-68
2022/07/16 08:43:51;;;;;;;7.70;0.88;;;18.30;99.90;;;;;;5034442;28;20068;-68
2022/07/16 08:46:20;;;;;;;6.90;1.10;;;18.30;99.90;;;;;;5034724;28;20044;-68
2022/07/16 08:48:48;;;;;;;4.63;0.88;;;18.20;99.90;;;;;;5035453;28;20087;-67
2022/07/16 08:51:20;;;;;;;6.68;0.95;;;18.30;99.90;;;;;;5035247;28;20043;-68
2022/07/16 08:53:45;;;;;;;4.25;0.90;;;18.50;99.90;;;;;;5017888;28;20040;-68
2022/07/16 08:56:11;;;;;;;6.07;1.10;;;18.70;99.90;;;;;;5033335;28;20678;-67
2022/07/16 08:58:37;;;;;;;4.97;1.40;;;18.90;99.90;;;;;;5033975;28;20073;-68
2022/07/16 09:01:03;;;;;;;5.43;1.00;;;18.90;99.90;;;;;;5034707;28;20047;-68
2022/07/16 09:03:28;;;;;;;8.15;1.85;;;18.90;99.90;;;;;;5029723;28;20029;-68
2022/07/16 09:05:54;;;;;;;6.60;1.02;;;18.60;99.90;;;;;;5032699;28;20041;-68
2022/07/16 09:08:20;;;;;;;5.25;0.98;;;18.70;99.90;;;;;;5033702;28;20613;-69
2022/07/16 09:10:46;;;;;;;7.10;1.02;;;18.60;99.90;;;;;;5014534;28;20153;-68
2022/07/16 09:13:12;;;;;;;5.28;1.10;;;18.50;99.90;;;;;;5033656;28;20145;-68
2022/07/16 09:15:40;;;;;;;5.57;1.20;;;18.50;99.90;;;;;;5027357;28;20064;-68
2022/07/16 09:18:20;;;;;;;4.05;1.00;;;18.40;99.90;;;;;;5017440;28;20489;-72
2022/07/16 09:20:55;;;;;;;6.03;1.63;;;18.20;99.90;;;;;;5033569;28;20124;-71
2022/07/16 09:23:31;;;;;;;4.90;1.00;;;18.20;99.90;;;;;;5017481;28;20037;-72
2022/07/16 09:25:59;;;;;;;7.55;1.33;;;18.50;99.90;;;;;;5033132;28;20036;-72
2022/07/16 09:28:36;;;;;;;5.72;1.23;;;18.60;99.90;;;;;;5020782;28;20040;-71
2022/07/16 09:31:02;;;;;;;6.20;1.38;;;18.90;99.90;;;;;;5025899;28;20054;-72
2022/07/16 09:33:28;;;;;;;5.68;1.08;;;19.10;99.90;;;;;;5035806;28;20041;-72
2022/07/16 09:36:23;;;;;;;5.10;1.02;;;19.20;99.90;;;;;;5038979;28;20047;-72
2022/07/16 09:38:52;;;;;;;3.70;0.80;;;19.20;99.90;;;;;;5021081;28;20389;-72
2022/07/16 09:41:19;;;;;;;4.82;1.30;;;19.20;99.90;;;;;;5038419;28;20122;-72
2022/07/16 09:43:45;;;;;;;4.20;1.00;;;19.30;99.90;;;;;;5036557;28;20033;-72
2022/07/16 09:46:23;;;;;;;6.82;1.17;;;19.50;99.90;;;;;;5036097;28;20085;-71
2022/07/16 09:48:50;;;;;;;6.57;1.02;;;19.70;99.90;;;;;;5037301;28;20041;-69
2022/07/16 09:51:26;;;;;;;9.63;1.20;;;19.70;99.90;;;;;;5016042;28;20041;-68
2022/07/16 09:53:54;;;;;;;5.15;1.00;;;19.60;98.50;;;;;;5043513;28;20044;-69
2022/07/16 09:56:24;;;;;;;5.55;1.00;;;19.70;99.40;;;;;;5037388;28;20044;-70
2022/07/16 09:58:52;;;;;;;4.60;1.00;;;19.80;98.40;;;;;;5036972;28;20516;-69
2022/07/16 10:01:19;;;;;;;2.88;0.90;;;19.80;99.70;;;;;;5053783;28;20036;-69
2022/07/16 10:03:45;;;;;;;5.63;1.00;;;19.80;99.60;;;;;;5034522;28;20428;-70
2022/07/16 10:06:12;;;;;;;3.67;0.65;;;19.80;99.90;;;;;;5033245;28;20048;-69
2022/07/16 10:08:39;;;;;;;5.53;0.88;;;20.00;99.50;;;;;;5020981;28;20047;-70
2022/07/16 10:11:04;;;;;;;5.53;0.95;;;20.10;99.90;;;;;;5055191;28;20129;-69
2022/07/16 10:13:31;;;;;;;5.28;1.17;;;20.30;99.90;;;;;;5020937;28;20470;-69
2022/07/16 10:15:57;;;;;;;6.40;1.30;;;20.30;99.50;;;;;;5029885;28;20045;-70
2022/07/16 10:18:42;;;;;;;4.60;1.08;;;20.20;97.90;;;;;;5020982;28;20040;-70
2022/07/16 10:21:25;;;;;;;5.03;1.08;;;20.10;98.20;;;;;;5041458;28;20407;-70
2022/07/16 10:24:08;;;;;;;8.40;1.10;;;20.20;98.00;;;;;;5037778;28;20127;-70
2022/07/16 10:26:34;;;;;;;7.28;1.50;;;20.30;98.80;;;;;;5015225;28;20041;-69
2022/07/16 10:29:01;;;;;;;5.75;1.23;;;20.30;96.00;;;;;;5021814;28;20458;-69
2022/07/16 10:31:37;;;;;;;7.28;1.00;;;20.00;98.00;;;;;;5034728;28;20072;-70
2022/07/16 10:34:15;;;;;;;4.28;1.05;;;19.80;97.50;;;;;;5023605;28;20510;-69
2022/07/16 10:36:55;;;;;;;6.45;1.20;;;19.80;98.80;;;;;;5036837;28;20299;-70
2022/07/16 10:39:23;;;;;;;7.93;1.40;;;19.80;94.90;;;;;;5033260;28;20041;-70
2022/07/16 10:41:54;;;;;;;9.68;1.05;;;19.90;99.30;;;;;;5020321;28;20502;-70
2022/07/16 10:44:43;;;;;;;5.32;1.13;;;20.00;97.70;;;;;;5006420;28;20029;-70
2022/07/16 10:47:09;;;;;;;5.03;1.10;;;20.10;98.60;;;;;;5033087;28;20036;-70
2022/07/16 10:49:34;;;;;;;4.82;1.10;;;20.30;98.00;;;;;;5021158;28;20405;-69
2022/07/16 10:52:03;;;;;;;5.20;1.20;;;20.40;96.90;;;;;;5036425;28;20041;-71
2022/07/16 10:54:29;;;;;;;6.43;1.13;;;20.50;96.30;;;;;;5035823;28;20057;-74
2022/07/16 10:56:57;;;;;;;5.68;0.90;;;20.60;97.20;;;;;;5021139;28;20095;-74
2022/07/16 10:59:25;;;;;;;3.97;0.80;;;20.60;96.90;;;;;;5036077;28;20033;-74
2022/07/16 11:01:54;;;;;;;3.60;0.90;;;20.50;95.30;;;;;;5035495;28;20040;-74
2022/07/16 11:04:29;;;;;;;3.30;0.70;;;20.60;97.00;;;;;;5022149;28;20099;-74
2022/07/16 11:06:56;;;;;;;5.15;1.10;;;20.50;97.80;;;;;;5019743;28;20124;-74
2022/07/16 11:09:36;;;;;;;4.95;1.27;;;20.50;96.80;;;;;;5035565;28;20056;-74
2022/07/16 11:12:18;;;;;;;3.47;0.90;;;20.50;97.30;;;;;;5019401;28;20025;-73
2022/07/16 11:14:46;;;;;;;15.15;1.50;;;20.60;95.20;;;;;;5035998;28;20040;-72
2022/07/16 11:17:13;;;;;;;23.45;3.15;;;20.60;96.30;;;;;;5018789;28;20041;-69
2022/07/16 11:19:44;;;;;;;9.85;1.20;;;20.80;98.20;;;;;;5018736;28;20517;-69
2022/07/16 11:22:11;;;;;;;6.22;1.23;;;20.80;94.80;;;;;;5036021;28;20048;-69
2022/07/16 11:24:54;;;;;;;7.10;0.98;;;20.80;93.80;;;;;;5019589;28;20041;-69
2022/07/16 11:27:38;;;;;;;4.70;0.90;;;20.80;91.40;;;;;;5035473;28;20048;-69
2022/07/16 11:30:09;;;;;;;3.38;0.95;;;20.60;96.00;;;;;;5019399;28;20037;-71
2022/07/16 11:32:45;;;;;;;4.28;0.93;;;20.60;96.90;;;;;;5035113;28;20106;-71
2022/07/16 11:35:11;;;;;;;5.28;1.08;;;20.70;96.40;;;;;;5036819;28;20562;-72
2022/07/16 11:37:55;;;;;;;5.90;1.05;;;20.70;97.10;;;;;;5035524;28;20037;-72
2022/07/16 11:40:32;;;;;;;5.07;1.00;;;20.70;96.50;;;;;;5035214;28;20563;-72
2022/07/16 11:42:59;;;;;;;5.30;1.00;;;20.70;94.60;;;;;;5034721;28;20060;-71
2022/07/16 11:45:27;;;;;;;3.58;0.80;;;20.70;97.50;;;;;;5026581;28;20128;-71
2022/07/16 11:48:11;;;;;;;4.47;1.10;;;20.60;96.10;;;;;;5029067;28;20425;-71
2022/07/16 11:50:37;;;;;;;4.40;1.10;;;20.40;93.00;;;;;;5027031;28;20035;-71
2022/07/16 11:53:02;;;;;;;5.10;1.30;;;20.50;97.10;;;;;;5033990;28;20037;-72
2022/07/16 11:55:28;;;;;;;5.70;1.10;;;20.50;96.00;;;;;;5031893;28;20486;-72
2022/07/16 11:57:54;;;;;;;4.55;1.00;;;20.60;97.20;;;;;;5034666;28;20033;-72
2022/07/16 12:00:19;;;;;;;4.85;0.98;;;20.40;93.80;;;;;;5033456;28;20132;-72
2022/07/16 12:02:45;;;;;;;6.22;1.00;;;20.30;97.10;;;;;;5015602;28;20036;-72
2022/07/16 12:05:10;;;;;;;5.97;1.05;;;20.20;98.30;;;;;;5033934;28;20048;-72
2022/07/16 12:07:36;;;;;;;6.78;1.25;;;20.30;98.60;;;;;;5015821;28;20394;-72
2022/07/16 12:10:06;;;;;;;7.35;1.30;;;20.30;96.20;;;;;;5021568;28;20125;-72
2022/07/16 12:12:34;;;;;;;5.63;1.10;;;20.30;98.10;;;;;;5027158;28;20440;-71
2022/07/16 12:15:12;;;;;;;5.88;1.00;;;20.30;99.10;;;;;;5014684;28;20120;-71
2022/07/16 12:17:43;;;;;;;8.07;1.10;;;20.40;99.90;;;;;;5018805;28;20048;-71
2022/07/16 12:20:24;;;;;;;6.07;1.30;;;20.40;99.40;;;;;;5034579;28;20044;-71
2022/07/16 12:22:51;;;;;;;7.47;1.27;;;20.50;99.90;;;;;;5017289;28;20497;-71
2022/07/16 12:25:23;;;;;;;7.97;1.80;;;20.60;99.90;;;;;;5034795;28;20045;-72
2022/07/16 12:27:54;;;;;;;4.90;1.20;;;20.60;98.40;;;;;;5026899;28;20029;-72
2022/07/16 12:30:30;;;;;;;4.25;1.00;;;20.60;98.20;;;;;;5023458;28;20824;-72
2022/07/16 12:32:56;;;;;;;5.03;0.90;;;20.60;94.80;;;;;;5012928;28;20051;-72
2022/07/16 12:35:42;;;;;;;7.05;1.42;;;20.60;98.00;;;;;;5031426;28;20484;-72
2022/07/16 12:38:29;;;;;;;6.93;1.30;;;20.30;96.20;;;;;;5034533;28;20489;-72
2022/07/16 12:40:55;;;;;;;6.75;1.40;;;20.10;98.80;;;;;;5016680;28;20040;-72
2022/07/16 12:43:20;;;;;;;8.38;1.58;;;20.00;99.50;;;;;;5018278;28;20049;-72
2022/07/16 12:45:46;;;;;;;6.93;1.48;;;20.00;99.90;;;;;;5033391;28;20124;-72
2022/07/16 12:48:12;;;;;;;5.68;1.40;;;19.90;98.80;;;;;;5018185;28;20075;-72
2022/07/16 12:50:38;;;;;;;6.55;1.05;;;20.10;98.70;;;;;;5015519;28;20045;-72
2022/07/16 12:53:03;;;;;;;5.65;1.27;;;20.00;99.10;;;;;;5031946;28;20037;-72